sensor_id;sensor_type;location;lat;lon;timestamp;temperature;humidity
4813;DHT22;2420;51.202;8.698;2023-04-01T00:00:17;8.30;1.00
4813;DHT22;2420;51.202;8.698;2023-04-01T00:02:43;8.30;1.00
4813;DHT22;2420;51.202;8.698;2023-04-01T00:05:09;8.30;1.00
4813;DHT22;2420;51.202;8.698;2023-04-01T00:07:38;8.30;1.00
4813;DHT22;2420;51.202;8.698;2023-04-01T00:10:08;8.30;1.00
4813;DHT22;2420;51.202;8.698;2023-04-01T00:12:34;8.30;1.00
4813;DHT22;2420;51.202;8.698;2023-04-01T00:15:00;8.40;1.00
4813;DHT22;2420;51.202;8.698;2023-04-01T00:17:26;8.40;1.00
4813;DHT22;2420;51.202;8.698;2023-04-01T00:19:54;8.30;1.00
4813;DHT22;2420;51.202;8.698;2023-04-01T00:22:20;8.30;1.00
4813;DHT22;2420;51.202;8.698;2023-04-01T00:24:45;8.20;1.00
4813;DHT22;2420;51.202;8.698;2023-04-01T00:27:12;8.20;1.00
4813;DHT22;2420;51.202;8.698;2023-04-01T00:29:37;8.20;1.00
4813;DHT22;2420;51.202;8.698;2023-04-01T00:32:03;8.30;1.00
4813;DHT22;2420;51.202;8.698;2023-04-01T00:34:28;8.20;1.00
4813;DHT22;2420;51.202;8.698;2023-04-01T00:36:54;8.30;1.00
4813;DHT22;2420;51.202;8.698;2023-04-01T00:39:20;8.30;1.00
4813;DHT22;2420;51.202;8.698;2023-04-01T00:41:47;8.30;1.00
4813;DHT22;2420;51.202;8.698;2023-04-01T00:46:44;8.20;1.00
4813;DHT22;2420;51.202;8.698;2023-04-01T00:49:10;8.20;1.00
4813;DHT22;2420;51.202;8.698;2023-04-01T00:51:37;8.20;1.00
4813;DHT22;2420;51.202;8.698;2023-04-01T00:54:04;8.20;1.00
4813;DHT22;2420;51.202;8.698;2023-04-01T00:56:34;8.20;1.00
4813;DHT22;2420;51.202;8.698;2023-04-01T00:59:05;8.20;1.00
4813;DHT22;2420;51.202;8.698;2023-04-01T01:01:34;8.30;1.00
4813;DHT22;2420;51.202;8.698;2023-04-01T01:04:01;8.20;1.00
4813;DHT22;2420;51.202;8.698;2023-04-01T01:06:31;8.30;1.00
4813;DHT22;2420;51.202;8.698;2023-04-01T01:09:13;8.30;1.00
4813;DHT22;2420;51.202;8.698;2023-04-01T01:11:42;8.20;1.00
4813;DHT22;2420;51.202;8.698;2023-04-01T01:17:13;8.30;1.00
4813;DHT22;2420;51.202;8.698;2023-04-01T01:25:01;8.20;1.00
4813;DHT22;2420;51.202;8.698;2023-04-01T01:27:33;8.20;1.00
4813;DHT22;2420;51.202;8.698;2023-04-01T01:30:20;8.20;1.00
4813;DHT22;2420;51.202;8.698;2023-04-01T01:33:07;8.20;1.00
4813;DHT22;2420;51.202;8.698;2023-04-01T01:35:39;8.20;1.00
4813;DHT22;2420;51.202;8.698;2023-04-01T01:38:11;8.20;1.00
4813;DHT22;2420;51.202;8.698;2023-04-01T01:40:42;8.20;1.00
4813;DHT22;2420;51.202;8.698;2023-04-01T01:43:11;8.10;1.00
4813;DHT22;2420;51.202;8.698;2023-04-01T01:45:43;8.10;1.00
4813;DHT22;2420;51.202;8.698;2023-04-01T01:48:11;8.10;1.00
4813;DHT22;2420;51.202;8.698;2023-04-01T01:50:37;8.10;1.00
4813;DHT22;2420;51.202;8.698;2023-04-01T01:53:06;8.10;1.00
4813;DHT22;2420;51.202;8.698;2023-04-01T01:55:37;8.10;1.00
4813;DHT22;2420;51.202;8.698;2023-04-01T02:00:41;8.10;1.00
4813;DHT22;2420;51.202;8.698;2023-04-01T02:03:10;8.20;1.00
4813;DHT22;2420;51.202;8.698;2023-04-01T02:05:37;8.20;1.00
4813;DHT22;2420;51.202;8.698;2023-04-01T02:08:10;8.20;1.00
4813;DHT22;2420;51.202;8.698;2023-04-01T02:10:41;8.10;1.00
4813;DHT22;2420;51.202;8.698;2023-04-01T02:13:16;8.10;1.00
4813;DHT22;2420;51.202;8.698;2023-04-01T02:15:45;8.10;1.00
4813;DHT22;2420;51.202;8.698;2023-04-01T02:18:13;8.10;1.00
4813;DHT22;2420;51.202;8.698;2023-04-01T02:20:41;8.10;1.00
4813;DHT22;2420;51.202;8.698;2023-04-01T02:23:07;8.00;1.00
4813;DHT22;2420;51.202;8.698;2023-04-01T02:25:36;8.10;1.00
4813;DHT22;2420;51.202;8.698;2023-04-01T02:28:05;8.00;1.00
4813;DHT22;2420;51.202;8.698;2023-04-01T02:30:34;8.00;1.00
4813;DHT22;2420;51.202;8.698;2023-04-01T02:33:01;8.00;1.00
4813;DHT22;2420;51.202;8.698;2023-04-01T02:35:27;8.00;1.00
4813;DHT22;2420;51.202;8.698;2023-04-01T02:37:54;8.10;1.00
4813;DHT22;2420;51.202;8.698;2023-04-01T02:40:20;8.10;1.00
4813;DHT22;2420;51.202;8.698;2023-04-01T02:42:46;8.10;1.00
4813;DHT22;2420;51.202;8.698;2023-04-01T02:45:12;8.10;1.00
4813;DHT22;2420;51.202;8.698;2023-04-01T02:47:38;8.10;1.00
4813;DHT22;2420;51.202;8.698;2023-04-01T02:50:04;8.00;1.00
4813;DHT22;2420;51.202;8.698;2023-04-01T02:52:31;8.00;1.00
4813;DHT22;2420;51.202;8.698;2023-04-01T02:54:57;8.00;1.00
4813;DHT22;2420;51.202;8.698;2023-04-01T02:57:23;8.00;1.00
4813;DHT22;2420;51.202;8.698;2023-04-01T02:59:49;8.00;1.00
4813;DHT22;2420;51.202;8.698;2023-04-01T03:02:15;8.00;1.00
4813;DHT22;2420;51.202;8.698;2023-04-01T03:04:41;8.10;1.00
4813;DHT22;2420;51.202;8.698;2023-04-01T03:07:06;8.10;1.00
4813;DHT22;2420;51.202;8.698;2023-04-01T03:09:32;8.00;1.00
4813;DHT22;2420;51.202;8.698;2023-04-01T03:11:57;8.00;1.00
4813;DHT22;2420;51.202;8.698;2023-04-01T03:14:23;8.00;1.00
4813;DHT22;2420;51.202;8.698;2023-04-01T03:16:49;8.00;1.00
4813;DHT22;2420;51.202;8.698;2023-04-01T03:19:14;8.00;1.00
4813;DHT22;2420;51.202;8.698;2023-04-01T03:21:40;8.00;1.00
4813;DHT22;2420;51.202;8.698;2023-04-01T03:24:06;8.10;1.00
4813;DHT22;2420;51.202;8.698;2023-04-01T03:26:31;8.10;1.00
4813;DHT22;2420;51.202;8.698;2023-04-01T03:28:57;8.00;1.00
4813;DHT22;2420;51.202;8.698;2023-04-01T03:31:23;8.00;1.00
4813;DHT22;2420;51.202;8.698;2023-04-01T03:33:48;8.00;1.00
4813;DHT22;2420;51.202;8.698;2023-04-01T03:36:14;8.00;1.00
4813;DHT22;2420;51.202;8.698;2023-04-01T03:38:41;8.00;1.00
4813;DHT22;2420;51.202;8.698;2023-04-01T03:41:14;7.90;1.00
4813;DHT22;2420;51.202;8.698;2023-04-01T03:43:40;7.90;1.00
4813;DHT22;2420;51.202;8.698;2023-04-01T03:46:06;8.00;1.00
4813;DHT22;2420;51.202;8.698;2023-04-01T03:48:32;8.00;1.00
4813;DHT22;2420;51.202;8.698;2023-04-01T03:50:57;8.00;1.00
4813;DHT22;2420;51.202;8.698;2023-04-01T03:53:23;7.90;1.00
4813;DHT22;2420;51.202;8.698;2023-04-01T03:55:48;8.00;1.00
4813;DHT22;2420;51.202;8.698;2023-04-01T03:58:16;7.90;1.00
4813;DHT22;2420;51.202;8.698;2023-04-01T04:00:42;7.90;1.00
4813;DHT22;2420;51.202;8.698;2023-04-01T04:03:07;7.90;1.00
4813;DHT22;2420;51.202;8.698;2023-04-01T04:05:33;7.90;1.00
4813;DHT22;2420;51.202;8.698;2023-04-01T04:07:58;7.90;1.00
4813;DHT22;2420;51.202;8.698;2023-04-01T04:10:24;7.90;1.00
4813;DHT22;2420;51.202;8.698;2023-04-01T04:12:51;7.90;1.00
4813;DHT22;2420;51.202;8.698;2023-04-01T04:15:16;7.90;1.00
4813;DHT22;2420;51.202;8.698;2023-04-01T04:17:43;7.90;1.00
4813;DHT22;2420;51.202;8.698;2023-04-01T04:20:09;7.90;1.00
4813;DHT22;2420;51.202;8.698;2023-04-01T04:22:34;7.80;1.00
4813;DHT22;2420;51.202;8.698;2023-04-01T04:25:00;7.90;1.00
4813;DHT22;2420;51.202;8.698;2023-04-01T04:27:25;7.90;1.00
4813;DHT22;2420;51.202;8.698;2023-04-01T04:29:51;7.90;1.00
4813;DHT22;2420;51.202;8.698;2023-04-01T04:32:16;7.80;1.00
4813;DHT22;2420;51.202;8.698;2023-04-01T04:34:42;7.80;1.00
4813;DHT22;2420;51.202;8.698;2023-04-01T04:37:08;7.80;1.00
4813;DHT22;2420;51.202;8.698;2023-04-01T04:39:33;7.80;1.00
4813;DHT22;2420;51.202;8.698;2023-04-01T04:41:59;7.80;1.00
4813;DHT22;2420;51.202;8.698;2023-04-01T04:44:24;7.90;1.00
4813;DHT22;2420;51.202;8.698;2023-04-01T04:46:50;7.80;1.00
4813;DHT22;2420;51.202;8.698;2023-04-01T04:49:15;7.80;1.00
4813;DHT22;2420;51.202;8.698;2023-04-01T04:51:41;7.80;1.00
4813;DHT22;2420;51.202;8.698;2023-04-01T04:54:07;7.80;1.00
4813;DHT22;2420;51.202;8.698;2023-04-01T04:56:33;7.80;1.00
4813;DHT22;2420;51.202;8.698;2023-04-01T04:58:59;7.80;1.00
4813;DHT22;2420;51.202;8.698;2023-04-01T05:01:25;7.80;1.00
4813;DHT22;2420;51.202;8.698;2023-04-01T05:03:50;7.80;1.00
4813;DHT22;2420;51.202;8.698;2023-04-01T05:06:17;7.80;1.00
4813;DHT22;2420;51.202;8.698;2023-04-01T05:08:44;7.80;1.00
4813;DHT22;2420;51.202;8.698;2023-04-01T05:11:13;7.70;1.00
4813;DHT22;2420;51.202;8.698;2023-04-01T05:13:39;7.80;1.00
4813;DHT22;2420;51.202;8.698;2023-04-01T05:16:08;7.70;1.00
4813;DHT22;2420;51.202;8.698;2023-04-01T05:18:34;7.60;1.00
4813;DHT22;2420;51.202;8.698;2023-04-01T05:20:59;7.70;1.00
4813;DHT22;2420;51.202;8.698;2023-04-01T05:23:25;7.70;1.00
4813;DHT22;2420;51.202;8.698;2023-04-01T05:25:51;7.70;1.00
4813;DHT22;2420;51.202;8.698;2023-04-01T05:28:18;7.70;1.00
4813;DHT22;2420;51.202;8.698;2023-04-01T05:30:44;7.70;1.00
4813;DHT22;2420;51.202;8.698;2023-04-01T05:33:12;7.70;1.00
4813;DHT22;2420;51.202;8.698;2023-04-01T05:35:38;7.70;1.00
4813;DHT22;2420;51.202;8.698;2023-04-01T05:38:03;7.70;1.00
4813;DHT22;2420;51.202;8.698;2023-04-01T05:40:30;7.70;1.00
4813;DHT22;2420;51.202;8.698;2023-04-01T05:42:55;7.70;1.00
4813;DHT22;2420;51.202;8.698;2023-04-01T05:45:22;7.70;1.00
4813;DHT22;2420;51.202;8.698;2023-04-01T05:47:47;7.70;1.00
4813;DHT22;2420;51.202;8.698;2023-04-01T05:50:13;7.70;1.00
4813;DHT22;2420;51.202;8.698;2023-04-01T05:52:39;7.60;1.00
4813;DHT22;2420;51.202;8.698;2023-04-01T05:55:05;7.70;1.00
4813;DHT22;2420;51.202;8.698;2023-04-01T05:57:30;7.70;1.00
4813;DHT22;2420;51.202;8.698;2023-04-01T05:59:56;7.70;1.00
4813;DHT22;2420;51.202;8.698;2023-04-01T06:02:22;7.70;1.00
4813;DHT22;2420;51.202;8.698;2023-04-01T06:04:48;7.70;1.00
4813;DHT22;2420;51.202;8.698;2023-04-01T06:07:15;7.70;1.00
4813;DHT22;2420;51.202;8.698;2023-04-01T06:09:42;7.60;1.00
4813;DHT22;2420;51.202;8.698;2023-04-01T06:15:13;7.70;1.00
4813;DHT22;2420;51.202;8.698;2023-04-01T06:17:56;7.70;1.00
4813;DHT22;2420;51.202;8.698;2023-04-01T06:23:32;7.70;1.00
4813;DHT22;2420;51.202;8.698;2023-04-01T06:26:18;7.70;1.00
4813;DHT22;2420;51.202;8.698;2023-04-01T06:33:52;7.70;1.00
4813;DHT22;2420;51.202;8.698;2023-04-01T06:48:02;7.90;1.00
4813;DHT22;2420;51.202;8.698;2023-04-01T06:53:46;8.00;1.00
4813;DHT22;2420;51.202;8.698;2023-04-01T06:56:17;8.00;1.00
4813;DHT22;2420;51.202;8.698;2023-04-01T06:58:53;8.00;1.00
4813;DHT22;2420;51.202;8.698;2023-04-01T07:01:44;8.00;1.00
4813;DHT22;2420;51.202;8.698;2023-04-01T07:04:23;8.00;1.00
4813;DHT22;2420;51.202;8.698;2023-04-01T07:06:53;8.00;1.00
4813;DHT22;2420;51.202;8.698;2023-04-01T07:09:24;8.10;1.00
4813;DHT22;2420;51.202;8.698;2023-04-01T07:11:53;8.10;1.00
4813;DHT22;2420;51.202;8.698;2023-04-01T07:14:35;8.10;1.00
4813;DHT22;2420;51.202;8.698;2023-04-01T07:17:11;8.20;1.00
4813;DHT22;2420;51.202;8.698;2023-04-01T07:20:10;8.30;1.00
4813;DHT22;2420;51.202;8.698;2023-04-01T07:22:40;8.30;1.00
4813;DHT22;2420;51.202;8.698;2023-04-01T07:25:27;8.40;1.00
4813;DHT22;2420;51.202;8.698;2023-04-01T07:28:06;8.50;1.00
4813;DHT22;2420;51.202;8.698;2023-04-01T07:33:36;8.50;1.00
4813;DHT22;2420;51.202;8.698;2023-04-01T07:38:59;8.40;1.00
4813;DHT22;2420;51.202;8.698;2023-04-01T07:41:55;8.30;1.00
4813;DHT22;2420;51.202;8.698;2023-04-01T07:52:42;8.50;1.00
4813;DHT22;2420;51.202;8.698;2023-04-01T07:58:09;8.60;1.00
4813;DHT22;2420;51.202;8.698;2023-04-01T08:00:50;8.60;1.00
4813;DHT22;2420;51.202;8.698;2023-04-01T08:03:38;8.70;1.00
4813;DHT22;2420;51.202;8.698;2023-04-01T08:14:21;8.80;1.00
4813;DHT22;2420;51.202;8.698;2023-04-01T08:17:03;8.80;1.00
4813;DHT22;2420;51.202;8.698;2023-04-01T08:20:07;8.90;1.00
4813;DHT22;2420;51.202;8.698;2023-04-01T08:22:42;8.90;1.00
4813;DHT22;2420;51.202;8.698;2023-04-01T08:25:17;9.00;1.00
4813;DHT22;2420;51.202;8.698;2023-04-01T08:27:51;9.00;1.00
4813;DHT22;2420;51.202;8.698;2023-04-01T08:30:24;9.10;1.00
4813;DHT22;2420;51.202;8.698;2023-04-01T08:32:59;9.20;1.00
4813;DHT22;2420;51.202;8.698;2023-04-01T08:35:34;9.30;1.00
4813;DHT22;2420;51.202;8.698;2023-04-01T08:38:11;9.40;1.00
4813;DHT22;2420;51.202;8.698;2023-04-01T08:41:01;9.50;1.00
4813;DHT22;2420;51.202;8.698;2023-04-01T08:57:13;9.60;1.00
4813;DHT22;2420;51.202;8.698;2023-04-01T08:59:55;9.60;1.00
4813;DHT22;2420;51.202;8.698;2023-04-01T09:02:41;9.60;1.00
4813;DHT22;2420;51.202;8.698;2023-04-01T09:05:36;9.60;1.00
4813;DHT22;2420;51.202;8.698;2023-04-01T09:16:01;9.90;1.00
4813;DHT22;2420;51.202;8.698;2023-04-01T09:18:46;9.90;1.00
4813;DHT22;2420;51.202;8.698;2023-04-01T09:21:18;9.90;1.00
4813;DHT22;2420;51.202;8.698;2023-04-01T09:38:08;9.90;1.00
4813;DHT22;2420;51.202;8.698;2023-04-01T09:44:02;9.90;1.00
4813;DHT22;2420;51.202;8.698;2023-04-01T09:46:14;9.90;1.00
4813;DHT22;2420;51.202;8.698;2023-04-01T09:57:21;9.90;1.00
4813;DHT22;2420;51.202;8.698;2023-04-01T10:03:34;9.80;1.00
4813;DHT22;2420;51.202;8.698;2023-04-01T10:14:30;9.80;1.00
4813;DHT22;2420;51.202;8.698;2023-04-01T10:26:09;9.90;1.00
4813;DHT22;2420;51.202;8.698;2023-04-01T10:37:33;9.80;1.00
4813;DHT22;2420;51.202;8.698;2023-04-01T10:51:23;9.80;1.00
4813;DHT22;2420;51.202;8.698;2023-04-01T10:57:08;9.70;1.00
4813;DHT22;2420;51.202;8.698;2023-04-01T11:34:02;10.00;1.00
4813;DHT22;2420;51.202;8.698;2023-04-01T11:39:29;10.00;1.00
4813;DHT22;2420;51.202;8.698;2023-04-01T11:45:15;10.00;1.00
4813;DHT22;2420;51.202;8.698;2023-04-01T12:01:36;10.40;1.00
4813;DHT22;2420;51.202;8.698;2023-04-01T12:10:31;10.40;1.00
4813;DHT22;2420;51.202;8.698;2023-04-01T12:21:49;10.60;1.00
4813;DHT22;2420;51.202;8.698;2023-04-01T12:24:41;10.60;1.00
4813;DHT22;2420;51.202;8.698;2023-04-01T12:30:11;10.80;1.00
4813;DHT22;2420;51.202;8.698;2023-04-01T12:35:39;10.80;1.00
4813;DHT22;2420;51.202;8.698;2023-04-01T12:49:52;10.60;1.00
4813;DHT22;2420;51.202;8.698;2023-04-01T12:52:37;10.70;1.00
4813;DHT22;2420;51.202;8.698;2023-04-01T13:01:00;11.00;1.00
4813;DHT22;2420;51.202;8.698;2023-04-01T13:11:52;11.30;1.00
4813;DHT22;2420;51.202;8.698;2023-04-01T13:22:51;11.20;1.00
4813;DHT22;2420;51.202;8.698;2023-04-01T13:25:44;11.20;1.00
4813;DHT22;2420;51.202;8.698;2023-04-01T13:28:23;11.10;1.00
4813;DHT22;2420;51.202;8.698;2023-04-01T13:31:41;11.00;1.00
4813;DHT22;2420;51.202;8.698;2023-04-01T13:40:02;10.80;1.00
4813;DHT22;2420;51.202;8.698;2023-04-01T13:42:35;10.60;1.00
4813;DHT22;2420;51.202;8.698;2023-04-01T13:45:15;10.50;1.00
4813;DHT22;2420;51.202;8.698;2023-04-01T13:51:01;10.30;1.00
4813;DHT22;2420;51.202;8.698;2023-04-01T13:59:29;10.40;1.00
4813;DHT22;2420;51.202;8.698;2023-04-01T14:12:51;10.40;1.00
4813;DHT22;2420;51.202;8.698;2023-04-01T14:18:07;10.40;1.00
4813;DHT22;2420;51.202;8.698;2023-04-01T14:32:39;10.30;1.00
4813;DHT22;2420;51.202;8.698;2023-04-01T14:38:04;10.40;1.00
4813;DHT22;2420;51.202;8.698;2023-04-01T14:46:13;10.50;1.00
4813;DHT22;2420;51.202;8.698;2023-04-01T14:49:00;10.30;1.00
4813;DHT22;2420;51.202;8.698;2023-04-01T14:54:04;10.30;1.00
4813;DHT22;2420;51.202;8.698;2023-04-01T14:59:04;10.50;1.00
4813;DHT22;2420;51.202;8.698;2023-04-01T15:01:36;10.50;1.00
4813;DHT22;2420;51.202;8.698;2023-04-01T15:07:29;10.50;1.00
4813;DHT22;2420;51.202;8.698;2023-04-01T15:14:04;10.50;1.00
4813;DHT22;2420;51.202;8.698;2023-04-01T15:16:34;10.40;1.00
4813;DHT22;2420;51.202;8.698;2023-04-01T15:25:00;10.20;1.00
4813;DHT22;2420;51.202;8.698;2023-04-01T15:27:47;10.20;1.00
4813;DHT22;2420;51.202;8.698;2023-04-01T15:33:13;10.20;1.00
4813;DHT22;2420;51.202;8.698;2023-04-01T15:36:17;10.10;1.00
4813;DHT22;2420;51.202;8.698;2023-04-01T15:47:33;10.20;1.00
4813;DHT22;2420;51.202;8.698;2023-04-01T15:53:24;10.20;1.00
4813;DHT22;2420;51.202;8.698;2023-04-01T15:56:17;10.20;1.00
4813;DHT22;2420;51.202;8.698;2023-04-01T15:59:24;10.20;1.00
4813;DHT22;2420;51.202;8.698;2023-04-01T16:15:44;10.10;1.00
4813;DHT22;2420;51.202;8.698;2023-04-01T16:26:56;9.90;1.00
4813;DHT22;2420;51.202;8.698;2023-04-01T16:29:47;9.90;1.00
4813;DHT22;2420;51.202;8.698;2023-04-01T16:37:52;9.90;1.00
4813;DHT22;2420;51.202;8.698;2023-04-01T16:40:47;9.80;1.00
4813;DHT22;2420;51.202;8.698;2023-04-01T16:51:46;9.80;1.00
4813;DHT22;2420;51.202;8.698;2023-04-01T16:59:40;9.70;1.00
4813;DHT22;2420;51.202;8.698;2023-04-01T17:02:13;9.70;1.00
4813;DHT22;2420;51.202;8.698;2023-04-01T17:07:33;9.70;1.00
4813;DHT22;2420;51.202;8.698;2023-04-01T17:18:11;9.60;1.00
4813;DHT22;2420;51.202;8.698;2023-04-01T17:20:56;9.50;1.00
4813;DHT22;2420;51.202;8.698;2023-04-01T17:23:36;9.50;1.00
4813;DHT22;2420;51.202;8.698;2023-04-01T17:26:26;9.50;1.00
4813;DHT22;2420;51.202;8.698;2023-04-01T17:34:12;9.50;1.00
4813;DHT22;2420;51.202;8.698;2023-04-01T17:36:55;9.50;1.00
4813;DHT22;2420;51.202;8.698;2023-04-01T17:42:20;9.50;1.00
4813;DHT22;2420;51.202;8.698;2023-04-01T17:45:01;9.50;1.00
4813;DHT22;2420;51.202;8.698;2023-04-01T17:55:55;9.40;1.00
4813;DHT22;2420;51.202;8.698;2023-04-01T18:01:21;9.30;1.00
4813;DHT22;2420;51.202;8.698;2023-04-01T18:06:35;9.30;1.00
4813;DHT22;2420;51.202;8.698;2023-04-01T18:17:45;9.20;1.00
4813;DHT22;2420;51.202;8.698;2023-04-01T18:20:41;9.20;1.00
4813;DHT22;2420;51.202;8.698;2023-04-01T18:25:48;9.20;1.00
4813;DHT22;2420;51.202;8.698;2023-04-01T18:28:35;9.10;1.00
4813;DHT22;2420;51.202;8.698;2023-04-01T18:33:40;9.10;1.00
4813;DHT22;2420;51.202;8.698;2023-04-01T18:36:23;9.10;1.00
4813;DHT22;2420;51.202;8.698;2023-04-01T18:38:54;9.00;1.00
4813;DHT22;2420;51.202;8.698;2023-04-01T18:44:28;9.00;1.00
4813;DHT22;2420;51.202;8.698;2023-04-01T18:50:06;9.00;1.00
4813;DHT22;2420;51.202;8.698;2023-04-01T18:52:42;9.00;1.00
4813;DHT22;2420;51.202;8.698;2023-04-01T18:55:31;9.00;1.00
4813;DHT22;2420;51.202;8.698;2023-04-01T19:06:35;8.90;1.00
4813;DHT22;2420;51.202;8.698;2023-04-01T19:09:19;8.90;1.00
4813;DHT22;2420;51.202;8.698;2023-04-01T19:20:45;8.90;1.00
4813;DHT22;2420;51.202;8.698;2023-04-01T19:26:46;8.80;1.00
4813;DHT22;2420;51.202;8.698;2023-04-01T19:29:18;8.80;1.00
4813;DHT22;2420;51.202;8.698;2023-04-01T19:43:03;8.80;1.00
4813;DHT22;2420;51.202;8.698;2023-04-01T19:48:19;8.70;1.00
4813;DHT22;2420;51.202;8.698;2023-04-01T19:50:57;8.70;1.00
4813;DHT22;2420;51.202;8.698;2023-04-01T19:53:28;8.70;1.00
4813;DHT22;2420;51.202;8.698;2023-04-01T19:56:06;8.70;1.00
4813;DHT22;2420;51.202;8.698;2023-04-01T20:01:36;8.70;1.00
4813;DHT22;2420;51.202;8.698;2023-04-01T20:04:38;8.70;1.00
4813;DHT22;2420;51.202;8.698;2023-04-01T20:07:27;8.70;1.00
4813;DHT22;2420;51.202;8.698;2023-04-01T20:09:58;8.60;1.00
4813;DHT22;2420;51.202;8.698;2023-04-01T20:15:04;8.70;1.00
4813;DHT22;2420;51.202;8.698;2023-04-01T20:20:19;8.70;1.00
4813;DHT22;2420;51.202;8.698;2023-04-01T20:31:04;8.50;1.00
4813;DHT22;2420;51.202;8.698;2023-04-01T20:34:12;8.50;1.00
4813;DHT22;2420;51.202;8.698;2023-04-01T20:51:14;8.60;1.00
4813;DHT22;2420;51.202;8.698;2023-04-01T21:00:24;8.50;1.00
4813;DHT22;2420;51.202;8.698;2023-04-01T21:02:35;8.50;1.00
4813;DHT22;2420;51.202;8.698;2023-04-01T21:07:46;8.50;1.00
4813;DHT22;2420;51.202;8.698;2023-04-01T21:12:53;8.50;1.00
4813;DHT22;2420;51.202;8.698;2023-04-01T21:15:41;8.50;1.00
4813;DHT22;2420;51.202;8.698;2023-04-01T21:21:15;8.60;1.00
4813;DHT22;2420;51.202;8.698;2023-04-01T21:23:58;8.60;1.00
4813;DHT22;2420;51.202;8.698;2023-04-01T21:31:56;8.60;1.00
4813;DHT22;2420;51.202;8.698;2023-04-01T21:37:41;8.60;1.00
4813;DHT22;2420;51.202;8.698;2023-04-01T21:43:54;8.60;1.00
4813;DHT22;2420;51.202;8.698;2023-04-01T22:06:10;8.40;1.00
4813;DHT22;2420;51.202;8.698;2023-04-01T22:14:05;8.40;1.00
4813;DHT22;2420;51.202;8.698;2023-04-01T22:19:17;8.40;1.00
4813;DHT22;2420;51.202;8.698;2023-04-01T22:22:06;8.50;1.00
4813;DHT22;2420;51.202;8.698;2023-04-01T22:30:18;8.40;1.00
4813;DHT22;2420;51.202;8.698;2023-04-01T22:35:30;8.50;1.00
4813;DHT22;2420;51.202;8.698;2023-04-01T22:41:16;8.50;1.00
4813;DHT22;2420;51.202;8.698;2023-04-01T22:43:45;8.50;1.00
4813;DHT22;2420;51.202;8.698;2023-04-01T22:46:28;8.50;1.00
4813;DHT22;2420;51.202;8.698;2023-04-01T22:49:13;8.50;1.00
4813;DHT22;2420;51.202;8.698;2023-04-01T22:51:59;8.50;1.00
4813;DHT22;2420;51.202;8.698;2023-04-01T22:54:37;8.50;1.00
4813;DHT22;2420;51.202;8.698;2023-04-01T23:00:04;8.50;1.00
4813;DHT22;2420;51.202;8.698;2023-04-01T23:02:39;8.40;1.00
4813;DHT22;2420;51.202;8.698;2023-04-01T23:05:11;8.20;1.00
4813;DHT22;2420;51.202;8.698;2023-04-01T23:10:44;8.00;1.00
4813;DHT22;2420;51.202;8.698;2023-04-01T23:13:24;7.90;1.00
4813;DHT22;2420;51.202;8.698;2023-04-01T23:15:53;7.80;1.00
4813;DHT22;2420;51.202;8.698;2023-04-01T23:28:49;7.50;1.00
4813;DHT22;2420;51.202;8.698;2023-04-01T23:31:36;7.40;1.00
4813;DHT22;2420;51.202;8.698;2023-04-01T23:36:43;7.30;1.00
4813;DHT22;2420;51.202;8.698;2023-04-01T23:41:56;7.00;1.00
4813;DHT22;2420;51.202;8.698;2023-04-01T23:44:24;7.00;1.00
4813;DHT22;2420;51.202;8.698;2023-04-01T23:46:51;6.80;1.00
4813;DHT22;2420;51.202;8.698;2023-04-01T23:49:20;6.80;1.00
4813;DHT22;2420;51.202;8.698;2023-04-01T23:51:58;6.80;1.00
4813;DHT22;2420;51.202;8.698;2023-04-01T23:54:33;6.70;1.00
4813;DHT22;2420;51.202;8.698;2023-04-01T23:57:05;6.80;1.00
4813;DHT22;2420;51.202;8.698;2023-04-01T23:59:35;6.80;1.00
